sensor_id;sensor_type;location;lat;lon;timestamp;temperature;humidity
68450;SHT30;55434;39.570;2.652;2022-08-21T00:00:09;25.03;65.96
68450;SHT30;55434;39.570;2.652;2022-08-21T00:02:36;25.03;65.85
68450;SHT30;55434;39.570;2.652;2022-08-21T00:05:03;25.05;65.74
68450;SHT30;55434;39.570;2.652;2022-08-21T00:07:31;25.08;65.58
68450;SHT30;55434;39.570;2.652;2022-08-21T00:09:58;25.02;66.06
68450;SHT30;55434;39.570;2.652;2022-08-21T00:12:23;24.98;66.25
68450;SHT30;55434;39.570;2.652;2022-08-21T00:14:49;24.96;66.36
68450;SHT30;55434;39.570;2.652;2022-08-21T00:17:15;24.98;66.20
68450;SHT30;55434;39.570;2.652;2022-08-21T00:19:40;24.95;66.17
68450;SHT30;55434;39.570;2.652;2022-08-21T00:22:06;24.89;66.46
68450;SHT30;55434;39.570;2.652;2022-08-21T00:24:32;24.86;66.72
68450;SHT30;55434;39.570;2.652;2022-08-21T00:26:57;24.83;66.70
68450;SHT30;55434;39.570;2.652;2022-08-21T00:29:25;24.79;66.95
68450;SHT30;55434;39.570;2.652;2022-08-21T00:31:51;24.79;67.15
68450;SHT30;55434;39.570;2.652;2022-08-21T00:34:16;24.71;67.00
68450;SHT30;55434;39.570;2.652;2022-08-21T00:36:45;24.71;67.06
68450;SHT30;55434;39.570;2.652;2022-08-21T00:39:12;24.81;66.86
68450;SHT30;55434;39.570;2.652;2022-08-21T00:41:38;24.71;66.87
68450;SHT30;55434;39.570;2.652;2022-08-21T00:44:08;24.76;66.78
68450;SHT30;55434;39.570;2.652;2022-08-21T00:46:37;24.76;66.63
68450;SHT30;55434;39.570;2.652;2022-08-21T00:49:05;24.69;66.98
68450;SHT30;55434;39.570;2.652;2022-08-21T00:51:42;24.59;67.45
68450;SHT30;55434;39.570;2.652;2022-08-21T00:54:10;24.91;66.52
68450;SHT30;55434;39.570;2.652;2022-08-21T00:56:36;24.73;67.35
68450;SHT30;55434;39.570;2.652;2022-08-21T00:59:03;24.64;67.84
68450;SHT30;55434;39.570;2.652;2022-08-21T01:01:29;24.65;67.92
68450;SHT30;55434;39.570;2.652;2022-08-21T01:03:55;24.88;67.11
68450;SHT30;55434;39.570;2.652;2022-08-21T01:06:22;25.05;66.71
68450;SHT30;55434;39.570;2.652;2022-08-21T01:08:49;24.98;66.92
68450;SHT30;55434;39.570;2.652;2022-08-21T01:11:16;24.83;67.60
68450;SHT30;55434;39.570;2.652;2022-08-21T01:13:43;24.68;67.83
68450;SHT30;55434;39.570;2.652;2022-08-21T01:16:13;24.57;67.76
68450;SHT30;55434;39.570;2.652;2022-08-21T01:18:40;24.49;67.84
68450;SHT30;55434;39.570;2.652;2022-08-21T01:21:12;24.38;68.13
68450;SHT30;55434;39.570;2.652;2022-08-21T01:23:41;24.37;68.64
68450;SHT30;55434;39.570;2.652;2022-08-21T01:26:08;24.37;69.18
68450;SHT30;55434;39.570;2.652;2022-08-21T01:28:50;24.35;69.97
68450;SHT30;55434;39.570;2.652;2022-08-21T01:31:22;24.37;69.51
68450;SHT30;55434;39.570;2.652;2022-08-21T01:33:49;24.41;69.08
68450;SHT30;55434;39.570;2.652;2022-08-21T01:36:23;24.42;68.75
68450;SHT30;55434;39.570;2.652;2022-08-21T01:38:52;24.37;68.39
68450;SHT30;55434;39.570;2.652;2022-08-21T01:41:21;24.35;68.33
68450;SHT30;55434;39.570;2.652;2022-08-21T01:43:48;24.25;68.18
68450;SHT30;55434;39.570;2.652;2022-08-21T01:46:15;24.27;68.51
68450;SHT30;55434;39.570;2.652;2022-08-21T01:48:49;24.18;68.15
68450;SHT30;55434;39.570;2.652;2022-08-21T01:51:18;24.17;68.16
68450;SHT30;55434;39.570;2.652;2022-08-21T01:53:44;24.22;68.16
68450;SHT30;55434;39.570;2.652;2022-08-21T01:56:15;24.21;68.27
68450;SHT30;55434;39.570;2.652;2022-08-21T01:58:48;24.41;67.77
68450;SHT30;55434;39.570;2.652;2022-08-21T02:01:16;24.31;68.16
68450;SHT30;55434;39.570;2.652;2022-08-21T02:03:48;24.21;68.38
68450;SHT30;55434;39.570;2.652;2022-08-21T02:06:15;24.18;68.77
68450;SHT30;55434;39.570;2.652;2022-08-21T02:08:47;24.13;69.11
68450;SHT30;55434;39.570;2.652;2022-08-21T02:11:14;24.13;69.24
68450;SHT30;55434;39.570;2.652;2022-08-21T02:13:45;24.10;69.50
68450;SHT30;55434;39.570;2.652;2022-08-21T02:16:15;24.08;69.40
68450;SHT30;55434;39.570;2.652;2022-08-21T02:18:42;24.06;69.28
68450;SHT30;55434;39.570;2.652;2022-08-21T02:21:08;24.06;69.25
68450;SHT30;55434;39.570;2.652;2022-08-21T02:23:34;24.08;69.38
68450;SHT30;55434;39.570;2.652;2022-08-21T02:26:05;24.08;69.35
68450;SHT30;55434;39.570;2.652;2022-08-21T02:28:35;24.11;69.83
68450;SHT30;55434;39.570;2.652;2022-08-21T02:31:04;24.16;70.58
68450;SHT30;55434;39.570;2.652;2022-08-21T02:33:30;24.13;69.86
68450;SHT30;55434;39.570;2.652;2022-08-21T02:36:03;24.08;69.52
68450;SHT30;55434;39.570;2.652;2022-08-21T02:38:33;24.03;69.23
68450;SHT30;55434;39.570;2.652;2022-08-21T02:41:16;24.11;69.40
68450;SHT30;55434;39.570;2.652;2022-08-21T02:43:42;24.04;69.27
68450;SHT30;55434;39.570;2.652;2022-08-21T02:46:10;24.04;69.29
68450;SHT30;55434;39.570;2.652;2022-08-21T02:48:37;24.10;69.22
68450;SHT30;55434;39.570;2.652;2022-08-21T02:51:12;24.11;69.38
68450;SHT30;55434;39.570;2.652;2022-08-21T02:53:44;24.14;69.30
68450;SHT30;55434;39.570;2.652;2022-08-21T02:56:12;24.08;69.37
68450;SHT30;55434;39.570;2.652;2022-08-21T02:58:45;24.07;69.62
68450;SHT30;55434;39.570;2.652;2022-08-21T03:01:11;24.10;69.44
68450;SHT30;55434;39.570;2.652;2022-08-21T03:03:40;24.07;69.68
68450;SHT30;55434;39.570;2.652;2022-08-21T03:06:08;24.08;69.94
68450;SHT30;55434;39.570;2.652;2022-08-21T03:08:36;24.06;70.30
68450;SHT30;55434;39.570;2.652;2022-08-21T03:11:04;24.13;70.28
68450;SHT30;55434;39.570;2.652;2022-08-21T03:13:29;24.10;70.91
68450;SHT30;55434;39.570;2.652;2022-08-21T03:15:59;24.07;71.91
68450;SHT30;55434;39.570;2.652;2022-08-21T03:18:27;24.07;72.11
68450;SHT30;55434;39.570;2.652;2022-08-21T03:20:53;24.04;72.02
68450;SHT30;55434;39.570;2.652;2022-08-21T03:23:20;24.07;72.27
68450;SHT30;55434;39.570;2.652;2022-08-21T03:25:51;24.07;72.57
68450;SHT30;55434;39.570;2.652;2022-08-21T03:28:20;24.08;72.66
68450;SHT30;55434;39.570;2.652;2022-08-21T03:30:49;24.01;73.19
68450;SHT30;55434;39.570;2.652;2022-08-21T03:33:28;24.03;73.08
68450;SHT30;55434;39.570;2.652;2022-08-21T03:36:01;24.00;73.30
68450;SHT30;55434;39.570;2.652;2022-08-21T03:38:32;24.00;73.59
68450;SHT30;55434;39.570;2.652;2022-08-21T03:41:07;24.00;73.43
68450;SHT30;55434;39.570;2.652;2022-08-21T03:43:34;23.98;73.52
68450;SHT30;55434;39.570;2.652;2022-08-21T03:46:06;24.01;73.60
68450;SHT30;55434;39.570;2.652;2022-08-21T03:48:36;24.00;73.75
68450;SHT30;55434;39.570;2.652;2022-08-21T03:51:26;24.03;73.61
68450;SHT30;55434;39.570;2.652;2022-08-21T03:53:59;23.98;73.73
68450;SHT30;55434;39.570;2.652;2022-08-21T03:56:26;24.01;73.15
68450;SHT30;55434;39.570;2.652;2022-08-21T03:58:59;23.97;73.33
68450;SHT30;55434;39.570;2.652;2022-08-21T04:01:36;23.98;73.56
68450;SHT30;55434;39.570;2.652;2022-08-21T04:04:08;23.96;73.84
68450;SHT30;55434;39.570;2.652;2022-08-21T04:06:35;23.92;74.51
68450;SHT30;55434;39.570;2.652;2022-08-21T04:09:02;23.90;74.92
68450;SHT30;55434;39.570;2.652;2022-08-21T04:11:33;23.97;74.21
68450;SHT30;55434;39.570;2.652;2022-08-21T04:14:01;24.06;73.99
68450;SHT30;55434;39.570;2.652;2022-08-21T04:16:30;24.03;74.58
68450;SHT30;55434;39.570;2.652;2022-08-21T04:18:58;24.01;74.88
68450;SHT30;55434;39.570;2.652;2022-08-21T04:21:37;24.04;75.00
68450;SHT30;55434;39.570;2.652;2022-08-21T04:24:23;24.00;75.42
68450;SHT30;55434;39.570;2.652;2022-08-21T04:26:56;23.97;75.35
68450;SHT30;55434;39.570;2.652;2022-08-21T04:29:24;23.98;75.47
68450;SHT30;55434;39.570;2.652;2022-08-21T04:31:52;24.08;74.22
68450;SHT30;55434;39.570;2.652;2022-08-21T04:34:24;24.04;73.94
68450;SHT30;55434;39.570;2.652;2022-08-21T04:36:49;24.03;73.88
68450;SHT30;55434;39.570;2.652;2022-08-21T04:39:15;24.04;73.65
68450;SHT30;55434;39.570;2.652;2022-08-21T04:41:43;23.96;73.52
68450;SHT30;55434;39.570;2.652;2022-08-21T04:44:10;24.06;72.95
68450;SHT30;55434;39.570;2.652;2022-08-21T04:46:37;23.83;73.53
68450;SHT30;55434;39.570;2.652;2022-08-21T04:49:03;23.67;73.65
68450;SHT30;55434;39.570;2.652;2022-08-21T04:51:34;23.60;73.45
68450;SHT30;55434;39.570;2.652;2022-08-21T04:54:12;23.48;74.03
68450;SHT30;55434;39.570;2.652;2022-08-21T04:56:42;23.41;74.08
68450;SHT30;55434;39.570;2.652;2022-08-21T04:59:19;23.20;74.31
68450;SHT30;55434;39.570;2.652;2022-08-21T05:01:47;23.06;74.76
68450;SHT30;55434;39.570;2.652;2022-08-21T05:04:17;23.04;74.98
68450;SHT30;55434;39.570;2.652;2022-08-21T05:06:45;22.98;74.87
68450;SHT30;55434;39.570;2.652;2022-08-21T05:09:15;22.90;75.01
68450;SHT30;55434;39.570;2.652;2022-08-21T05:11:44;22.85;75.16
68450;SHT30;55434;39.570;2.652;2022-08-21T05:14:17;22.95;75.11
68450;SHT30;55434;39.570;2.652;2022-08-21T05:16:42;22.91;75.40
68450;SHT30;55434;39.570;2.652;2022-08-21T05:19:09;22.91;75.39
68450;SHT30;55434;39.570;2.652;2022-08-21T05:21:38;22.95;75.39
68450;SHT30;55434;39.570;2.652;2022-08-21T05:24:04;22.96;75.34
68450;SHT30;55434;39.570;2.652;2022-08-21T05:26:31;22.98;75.39
68450;SHT30;55434;39.570;2.652;2022-08-21T05:28:58;23.06;75.21
68450;SHT30;55434;39.570;2.652;2022-08-21T05:31:24;23.14;74.94
68450;SHT30;55434;39.570;2.652;2022-08-21T05:33:50;23.36;74.10
68450;SHT30;55434;39.570;2.652;2022-08-21T05:36:18;23.43;73.82
68450;SHT30;55434;39.570;2.652;2022-08-21T05:38:44;23.45;73.94
68450;SHT30;55434;39.570;2.652;2022-08-21T05:41:13;23.41;73.98
68450;SHT30;55434;39.570;2.652;2022-08-21T05:43:39;23.43;73.97
68450;SHT30;55434;39.570;2.652;2022-08-21T05:46:06;23.59;73.21
68450;SHT30;55434;39.570;2.652;2022-08-21T05:48:33;23.67;72.88
68450;SHT30;55434;39.570;2.652;2022-08-21T05:51:13;23.60;73.25
68450;SHT30;55434;39.570;2.652;2022-08-21T05:53:41;23.65;73.17
68450;SHT30;55434;39.570;2.652;2022-08-21T05:56:08;23.69;73.00
68450;SHT30;55434;39.570;2.652;2022-08-21T05:58:35;23.63;73.19
68450;SHT30;55434;39.570;2.652;2022-08-21T06:01:01;23.62;73.36
68450;SHT30;55434;39.570;2.652;2022-08-21T06:03:36;23.70;73.24
68450;SHT30;55434;39.570;2.652;2022-08-21T06:06:04;23.86;72.54
68450;SHT30;55434;39.570;2.652;2022-08-21T06:08:31;24.06;71.72
68450;SHT30;55434;39.570;2.652;2022-08-21T06:10:59;24.04;71.88
68450;SHT30;55434;39.570;2.652;2022-08-21T06:13:26;24.03;71.79
68450;SHT30;55434;39.570;2.652;2022-08-21T06:16:14;24.22;71.26
68450;SHT30;55434;39.570;2.652;2022-08-21T06:18:47;24.51;70.15
68450;SHT30;55434;39.570;2.652;2022-08-21T06:21:12;24.58;69.64
68450;SHT30;55434;39.570;2.652;2022-08-21T06:23:38;24.57;69.85
68450;SHT30;55434;39.570;2.652;2022-08-21T06:26:05;24.49;69.88
68450;SHT30;55434;39.570;2.652;2022-08-21T06:28:32;24.42;69.67
68450;SHT30;55434;39.570;2.652;2022-08-21T06:30:58;24.38;69.43
68450;SHT30;55434;39.570;2.652;2022-08-21T06:33:26;24.28;69.49
68450;SHT30;55434;39.570;2.652;2022-08-21T06:35:52;24.35;69.61
68450;SHT30;55434;39.570;2.652;2022-08-21T06:38:20;24.28;69.24
68450;SHT30;55434;39.570;2.652;2022-08-21T06:40:46;24.32;69.28
68450;SHT30;55434;39.570;2.652;2022-08-21T06:43:19;24.35;68.96
68450;SHT30;55434;39.570;2.652;2022-08-21T06:45:47;24.37;69.20
68450;SHT30;55434;39.570;2.652;2022-08-21T06:48:13;24.38;69.38
68450;SHT30;55434;39.570;2.652;2022-08-21T06:50:39;24.57;68.85
68450;SHT30;55434;39.570;2.652;2022-08-21T06:53:11;24.54;68.80
68450;SHT30;55434;39.570;2.652;2022-08-21T06:55:39;24.61;68.23
68450;SHT30;55434;39.570;2.652;2022-08-21T06:58:05;24.69;68.22
68450;SHT30;55434;39.570;2.652;2022-08-21T07:00:31;24.71;67.23
68450;SHT30;55434;39.570;2.652;2022-08-21T07:02:59;24.79;66.69
68450;SHT30;55434;39.570;2.652;2022-08-21T07:05:31;24.88;66.08
68450;SHT30;55434;39.570;2.652;2022-08-21T07:08:00;24.99;63.86
68450;SHT30;55434;39.570;2.652;2022-08-21T07:10:28;25.05;63.73
68450;SHT30;55434;39.570;2.652;2022-08-21T07:12:56;25.10;64.29
68450;SHT30;55434;39.570;2.652;2022-08-21T07:15:23;25.30;64.44
68450;SHT30;55434;39.570;2.652;2022-08-21T07:17:58;25.34;64.45
68450;SHT30;55434;39.570;2.652;2022-08-21T07:20:32;25.33;64.75
68450;SHT30;55434;39.570;2.652;2022-08-21T07:23:06;25.40;65.25
68450;SHT30;55434;39.570;2.652;2022-08-21T07:25:41;25.43;65.66
68450;SHT30;55434;39.570;2.652;2022-08-21T07:28:16;25.53;65.68
68450;SHT30;55434;39.570;2.652;2022-08-21T07:30:42;25.60;66.09
68450;SHT30;55434;39.570;2.652;2022-08-21T07:33:12;25.74;65.65
68450;SHT30;55434;39.570;2.652;2022-08-21T07:35:43;25.88;65.00
68450;SHT30;55434;39.570;2.652;2022-08-21T07:38:12;26.01;65.97
68450;SHT30;55434;39.570;2.652;2022-08-21T07:40:50;26.05;67.38
68450;SHT30;55434;39.570;2.652;2022-08-21T07:43:21;26.08;67.62
68450;SHT30;55434;39.570;2.652;2022-08-21T07:45:49;26.17;67.25
68450;SHT30;55434;39.570;2.652;2022-08-21T07:48:36;26.32;66.47
68450;SHT30;55434;39.570;2.652;2022-08-21T07:51:09;26.45;67.43
68450;SHT30;55434;39.570;2.652;2022-08-21T07:53:36;26.56;67.97
68450;SHT30;55434;39.570;2.652;2022-08-21T07:56:08;26.57;69.95
68450;SHT30;55434;39.570;2.652;2022-08-21T07:58:36;26.60;69.12
68450;SHT30;55434;39.570;2.652;2022-08-21T08:01:05;26.73;70.32
68450;SHT30;55434;39.570;2.652;2022-08-21T08:03:34;26.72;70.12
68450;SHT30;55434;39.570;2.652;2022-08-21T08:06:01;26.69;70.19
68450;SHT30;55434;39.570;2.652;2022-08-21T08:08:40;26.75;70.56
68450;SHT30;55434;39.570;2.652;2022-08-21T08:11:17;26.75;70.57
68450;SHT30;55434;39.570;2.652;2022-08-21T08:13:47;26.72;70.74
68450;SHT30;55434;39.570;2.652;2022-08-21T08:16:14;26.80;70.04
68450;SHT30;55434;39.570;2.652;2022-08-21T08:18:41;26.85;70.20
68450;SHT30;55434;39.570;2.652;2022-08-21T08:21:11;26.87;69.79
68450;SHT30;55434;39.570;2.652;2022-08-21T08:23:37;26.90;69.61
68450;SHT30;55434;39.570;2.652;2022-08-21T08:26:05;26.96;69.62
68450;SHT30;55434;39.570;2.652;2022-08-21T08:28:35;27.00;69.30
68450;SHT30;55434;39.570;2.652;2022-08-21T08:31:12;27.02;69.40
68450;SHT30;55434;39.570;2.652;2022-08-21T08:33:40;27.04;69.61
68450;SHT30;55434;39.570;2.652;2022-08-21T08:36:35;27.13;69.10
68450;SHT30;55434;39.570;2.652;2022-08-21T08:39:03;27.14;68.84
68450;SHT30;55434;39.570;2.652;2022-08-21T08:41:32;27.24;68.87
68450;SHT30;55434;39.570;2.652;2022-08-21T08:44:03;27.27;68.82
68450;SHT30;55434;39.570;2.652;2022-08-21T08:46:38;27.29;68.66
68450;SHT30;55434;39.570;2.652;2022-08-21T08:49:34;27.29;68.73
68450;SHT30;55434;39.570;2.652;2022-08-21T08:52:23;27.31;68.26
68450;SHT30;55434;39.570;2.652;2022-08-21T08:55:17;27.44;67.97
68450;SHT30;55434;39.570;2.652;2022-08-21T08:57:46;27.47;68.16
68450;SHT30;55434;39.570;2.652;2022-08-21T09:00:18;27.48;67.86
68450;SHT30;55434;39.570;2.652;2022-08-21T09:02:47;27.47;68.11
68450;SHT30;55434;39.570;2.652;2022-08-21T09:05:27;27.59;67.70
68450;SHT30;55434;39.570;2.652;2022-08-21T09:19:23;27.62;67.87
68450;SHT30;55434;39.570;2.652;2022-08-21T09:22:10;27.69;68.12
68450;SHT30;55434;39.570;2.652;2022-08-21T09:25:04;27.78;67.84
68450;SHT30;55434;39.570;2.652;2022-08-21T09:27:35;27.91;67.62
68450;SHT30;55434;39.570;2.652;2022-08-21T09:30:04;27.99;66.79
68450;SHT30;55434;39.570;2.652;2022-08-21T09:32:34;28.09;66.64
68450;SHT30;55434;39.570;2.652;2022-08-21T09:35:13;28.06;66.55
68450;SHT30;55434;39.570;2.652;2022-08-21T09:37:58;28.22;66.42
68450;SHT30;55434;39.570;2.652;2022-08-21T09:40:45;28.20;66.53
68450;SHT30;55434;39.570;2.652;2022-08-21T09:43:19;28.32;66.31
68450;SHT30;55434;39.570;2.652;2022-08-21T09:45:48;28.25;66.04
68450;SHT30;55434;39.570;2.652;2022-08-21T09:48:26;28.28;66.04
68450;SHT30;55434;39.570;2.652;2022-08-21T09:50:53;28.26;66.19
68450;SHT30;55434;39.570;2.652;2022-08-21T09:53:25;28.31;65.69
68450;SHT30;55434;39.570;2.652;2022-08-21T09:58:40;28.53;65.49
68450;SHT30;55434;39.570;2.652;2022-08-21T10:01:13;28.57;65.81
68450;SHT30;55434;39.570;2.652;2022-08-21T10:03:39;28.70;65.01
68450;SHT30;55434;39.570;2.652;2022-08-21T10:06:07;28.81;65.19
68450;SHT30;55434;39.570;2.652;2022-08-21T10:08:37;28.90;64.06
68450;SHT30;55434;39.570;2.652;2022-08-21T10:11:13;28.84;64.81
68450;SHT30;55434;39.570;2.652;2022-08-21T10:13:55;28.84;64.44
68450;SHT30;55434;39.570;2.652;2022-08-21T10:19:37;29.20;62.86
68450;SHT30;55434;39.570;2.652;2022-08-21T10:24:41;29.38;62.35
68450;SHT30;55434;39.570;2.652;2022-08-21T10:30:02;29.54;61.56
68450;SHT30;55434;39.570;2.652;2022-08-21T10:35:33;29.62;61.69
68450;SHT30;55434;39.570;2.652;2022-08-21T10:40:52;29.73;61.60
68450;SHT30;55434;39.570;2.652;2022-08-21T10:48:37;30.03;60.10
68450;SHT30;55434;39.570;2.652;2022-08-21T10:51:15;30.17;59.80
68450;SHT30;55434;39.570;2.652;2022-08-21T10:53:50;31.08;57.76
68450;SHT30;55434;39.570;2.652;2022-08-21T10:56:20;32.37;53.52
68450;SHT30;55434;39.570;2.652;2022-08-21T11:01:29;33.35;51.39
68450;SHT30;55434;39.570;2.652;2022-08-21T11:06:41;33.08;52.37
68450;SHT30;55434;39.570;2.652;2022-08-21T11:09:14;32.24;54.03
68450;SHT30;55434;39.570;2.652;2022-08-21T11:11:55;32.95;52.01
68450;SHT30;55434;39.570;2.652;2022-08-21T11:17:08;34.16;48.67
68450;SHT30;55434;39.570;2.652;2022-08-21T11:22:40;33.53;50.09
68450;SHT30;55434;39.570;2.652;2022-08-21T11:30:42;34.01;49.11
68450;SHT30;55434;39.570;2.652;2022-08-21T11:38:45;34.43;48.55
68450;SHT30;55434;39.570;2.652;2022-08-21T11:44:06;34.37;48.47
68450;SHT30;55434;39.570;2.652;2022-08-21T11:54:41;34.85;48.58
68450;SHT30;55434;39.570;2.652;2022-08-21T12:02:36;34.00;50.82
68450;SHT30;55434;39.570;2.652;2022-08-21T12:05:06;33.81;50.52
68450;SHT30;55434;39.570;2.652;2022-08-21T12:07:40;32.84;53.77
68450;SHT30;55434;39.570;2.652;2022-08-21T12:10:11;31.79;55.96
68450;SHT30;55434;39.570;2.652;2022-08-21T12:12:38;30.88;57.94
68450;SHT30;55434;39.570;2.652;2022-08-21T12:17:38;33.60;50.60
68450;SHT30;55434;39.570;2.652;2022-08-21T12:20:38;33.49;51.95
68450;SHT30;55434;39.570;2.652;2022-08-21T12:25:58;34.04;50.37
68450;SHT30;55434;39.570;2.652;2022-08-21T12:28:29;33.77;50.24
68450;SHT30;55434;39.570;2.652;2022-08-21T12:30:56;33.93;50.88
68450;SHT30;55434;39.570;2.652;2022-08-21T12:33:38;34.03;51.36
68450;SHT30;55434;39.570;2.652;2022-08-21T12:36:17;33.65;51.53
68450;SHT30;55434;39.570;2.652;2022-08-21T12:38:54;33.73;51.92
68450;SHT30;55434;39.570;2.652;2022-08-21T12:41:27;34.06;50.92
68450;SHT30;55434;39.570;2.652;2022-08-21T12:44:14;33.72;52.19
68450;SHT30;55434;39.570;2.652;2022-08-21T12:46:48;33.89;51.99
68450;SHT30;55434;39.570;2.652;2022-08-21T12:49:20;34.24;50.52
68450;SHT30;55434;39.570;2.652;2022-08-21T12:51:55;33.77;52.33
68450;SHT30;55434;39.570;2.652;2022-08-21T12:54:24;33.77;52.14
68450;SHT30;55434;39.570;2.652;2022-08-21T12:57:01;33.66;51.94
68450;SHT30;55434;39.570;2.652;2022-08-21T12:59:28;33.65;51.80
68450;SHT30;55434;39.570;2.652;2022-08-21T13:01:58;33.56;52.74
68450;SHT30;55434;39.570;2.652;2022-08-21T13:04:36;33.69;51.71
68450;SHT30;55434;39.570;2.652;2022-08-21T13:07:07;33.41;52.73
68450;SHT30;55434;39.570;2.652;2022-08-21T13:09:41;33.60;52.98
68450;SHT30;55434;39.570;2.652;2022-08-21T13:12:08;33.90;52.29
68450;SHT30;55434;39.570;2.652;2022-08-21T13:14:38;33.56;52.95
68450;SHT30;55434;39.570;2.652;2022-08-21T13:17:05;33.42;53.17
68450;SHT30;55434;39.570;2.652;2022-08-21T13:19:32;33.49;53.00
68450;SHT30;55434;39.570;2.652;2022-08-21T13:22:00;33.92;52.20
68450;SHT30;55434;39.570;2.652;2022-08-21T13:24:29;33.83;53.16
68450;SHT30;55434;39.570;2.652;2022-08-21T13:26:56;33.39;54.07
68450;SHT30;55434;39.570;2.652;2022-08-21T13:29:28;33.86;52.73
68450;SHT30;55434;39.570;2.652;2022-08-21T13:32:05;33.69;53.27
68450;SHT30;55434;39.570;2.652;2022-08-21T13:34:36;33.50;54.17
68450;SHT30;55434;39.570;2.652;2022-08-21T13:37:05;33.66;53.40
68450;SHT30;55434;39.570;2.652;2022-08-21T13:39:31;34.18;52.12
68450;SHT30;55434;39.570;2.652;2022-08-21T13:42:00;34.24;51.44
68450;SHT30;55434;39.570;2.652;2022-08-21T13:44:40;33.50;52.71
68450;SHT30;55434;39.570;2.652;2022-08-21T13:47:06;33.59;53.28
68450;SHT30;55434;39.570;2.652;2022-08-21T13:49:39;33.28;53.59
68450;SHT30;55434;39.570;2.652;2022-08-21T13:52:31;33.26;54.10
68450;SHT30;55434;39.570;2.652;2022-08-21T13:57:28;32.65;54.89
68450;SHT30;55434;39.570;2.652;2022-08-21T14:02:39;32.07;55.75
68450;SHT30;55434;39.570;2.652;2022-08-21T14:05:05;32.33;55.63
68450;SHT30;55434;39.570;2.652;2022-08-21T14:07:35;32.40;55.36
68450;SHT30;55434;39.570;2.652;2022-08-21T14:10:07;32.23;55.46
68450;SHT30;55434;39.570;2.652;2022-08-21T14:13:04;32.21;55.92
68450;SHT30;55434;39.570;2.652;2022-08-21T14:15:32;32.12;55.73
68450;SHT30;55434;39.570;2.652;2022-08-21T14:18:15;32.10;56.86
68450;SHT30;55434;39.570;2.652;2022-08-21T14:20:41;32.12;56.86
68450;SHT30;55434;39.570;2.652;2022-08-21T14:23:07;32.03;56.48
68450;SHT30;55434;39.570;2.652;2022-08-21T14:25:42;31.82;57.73
68450;SHT30;55434;39.570;2.652;2022-08-21T14:28:47;32.07;57.56
68450;SHT30;55434;39.570;2.652;2022-08-21T14:31:20;32.17;57.24
68450;SHT30;55434;39.570;2.652;2022-08-21T14:33:46;32.19;56.86
68450;SHT30;55434;39.570;2.652;2022-08-21T14:36:12;32.30;56.16
68450;SHT30;55434;39.570;2.652;2022-08-21T14:38:39;32.14;56.50
68450;SHT30;55434;39.570;2.652;2022-08-21T14:41:19;32.23;57.08
68450;SHT30;55434;39.570;2.652;2022-08-21T14:43:48;32.50;56.48
68450;SHT30;55434;39.570;2.652;2022-08-21T14:46:22;32.77;54.88
68450;SHT30;55434;39.570;2.652;2022-08-21T14:48:48;33.14;54.40
68450;SHT30;55434;39.570;2.652;2022-08-21T14:51:14;33.14;54.28
68450;SHT30;55434;39.570;2.652;2022-08-21T14:53:40;33.12;53.63
68450;SHT30;55434;39.570;2.652;2022-08-21T14:56:06;33.62;52.26
68450;SHT30;55434;39.570;2.652;2022-08-21T14:58:37;33.80;52.51
68450;SHT30;55434;39.570;2.652;2022-08-21T15:01:05;33.76;52.43
68450;SHT30;55434;39.570;2.652;2022-08-21T15:03:31;33.36;52.54
68450;SHT30;55434;39.570;2.652;2022-08-21T15:05:58;33.52;53.20
68450;SHT30;55434;39.570;2.652;2022-08-21T15:08:23;33.87;52.38
68450;SHT30;55434;39.570;2.652;2022-08-21T15:10:50;33.76;52.58
68450;SHT30;55434;39.570;2.652;2022-08-21T15:13:16;33.96;52.01
68450;SHT30;55434;39.570;2.652;2022-08-21T15:15:45;33.62;52.66
68450;SHT30;55434;39.570;2.652;2022-08-21T15:18:11;33.69;52.61
68450;SHT30;55434;39.570;2.652;2022-08-21T15:20:37;33.73;52.39
68450;SHT30;55434;39.570;2.652;2022-08-21T15:23:04;33.69;52.51
68450;SHT30;55434;39.570;2.652;2022-08-21T15:25:30;33.86;52.43
68450;SHT30;55434;39.570;2.652;2022-08-21T15:27:56;33.87;51.87
68450;SHT30;55434;39.570;2.652;2022-08-21T15:30:22;33.87;51.80
68450;SHT30;55434;39.570;2.652;2022-08-21T15:32:47;33.59;53.67
68450;SHT30;55434;39.570;2.652;2022-08-21T15:35:15;33.67;53.12
68450;SHT30;55434;39.570;2.652;2022-08-21T15:37:41;33.74;53.46
68450;SHT30;55434;39.570;2.652;2022-08-21T15:40:07;33.47;53.28
68450;SHT30;55434;39.570;2.652;2022-08-21T15:42:33;33.83;52.58
68450;SHT30;55434;39.570;2.652;2022-08-21T15:44:59;33.72;52.59
68450;SHT30;55434;39.570;2.652;2022-08-21T15:47:29;33.98;51.87
68450;SHT30;55434;39.570;2.652;2022-08-21T15:49:55;33.70;51.26
68450;SHT30;55434;39.570;2.652;2022-08-21T15:52:22;33.72;51.72
68450;SHT30;55434;39.570;2.652;2022-08-21T15:54:48;33.46;51.72
68450;SHT30;55434;39.570;2.652;2022-08-21T15:57:18;33.32;52.11
68450;SHT30;55434;39.570;2.652;2022-08-21T15:59:47;33.76;51.83
68450;SHT30;55434;39.570;2.652;2022-08-21T16:02:29;34.10;51.10
68450;SHT30;55434;39.570;2.652;2022-08-21T16:04:56;34.20;51.22
68450;SHT30;55434;39.570;2.652;2022-08-21T16:07:21;34.13;51.46
68450;SHT30;55434;39.570;2.652;2022-08-21T16:09:47;34.16;50.81
68450;SHT30;55434;39.570;2.652;2022-08-21T16:12:21;33.63;53.08
68450;SHT30;55434;39.570;2.652;2022-08-21T16:14:47;33.42;53.40
68450;SHT30;55434;39.570;2.652;2022-08-21T16:17:14;32.99;54.15
68450;SHT30;55434;39.570;2.652;2022-08-21T16:19:40;32.85;53.79
68450;SHT30;55434;39.570;2.652;2022-08-21T16:22:06;32.63;55.48
68450;SHT30;55434;39.570;2.652;2022-08-21T16:24:31;32.74;54.74
68450;SHT30;55434;39.570;2.652;2022-08-21T16:26:57;32.40;55.08
68450;SHT30;55434;39.570;2.652;2022-08-21T16:29:23;31.89;56.39
68450;SHT30;55434;39.570;2.652;2022-08-21T16:31:48;31.59;57.24
68450;SHT30;55434;39.570;2.652;2022-08-21T16:34:16;31.47;57.97
68450;SHT30;55434;39.570;2.652;2022-08-21T16:36:42;31.53;57.98
68450;SHT30;55434;39.570;2.652;2022-08-21T16:39:08;31.47;58.02
68450;SHT30;55434;39.570;2.652;2022-08-21T16:41:34;31.21;58.16
68450;SHT30;55434;39.570;2.652;2022-08-21T16:44:01;31.08;58.21
68450;SHT30;55434;39.570;2.652;2022-08-21T16:46:29;30.90;58.87
68450;SHT30;55434;39.570;2.652;2022-08-21T16:48:55;30.48;60.02
68450;SHT30;55434;39.570;2.652;2022-08-21T16:51:21;30.32;60.51
68450;SHT30;55434;39.570;2.652;2022-08-21T16:53:46;29.99;61.58
68450;SHT30;55434;39.570;2.652;2022-08-21T16:56:13;29.71;62.00
68450;SHT30;55434;39.570;2.652;2022-08-21T16:58:42;29.58;62.24
68450;SHT30;55434;39.570;2.652;2022-08-21T17:01:10;29.47;62.78
68450;SHT30;55434;39.570;2.652;2022-08-21T17:03:39;29.44;62.66
68450;SHT30;55434;39.570;2.652;2022-08-21T17:06:06;29.28;63.06
68450;SHT30;55434;39.570;2.652;2022-08-21T17:08:32;29.31;62.78
68450;SHT30;55434;39.570;2.652;2022-08-21T17:10:58;29.28;62.60